Time;durP1;ratioP1;P1;durP2;ratioP2;P2;SDS_P1;SDS_P2;PMS_P1;PMS_P2;Temp;Humidity;BMP_temperature;BMP_pressure;BME280_temperature;BME280_humidity;BME280_pressure;Samples;Min_cycle;Max_cycle;Signal;HPM_P1;HPM_P2
2023/03/19 00:01:46;;;;;;;2.35;1.25;;;10.20;99.90;;;;;;5003721;28;20077;-72
2023/03/19 00:04:11;;;;;;;2.83;1.35;;;10.20;99.90;;;;;;5003454;28;20065;-73
2023/03/19 00:06:37;;;;;;;1.27;0.77;;;10.20;99.90;;;;;;4983552;28;20057;-72
2023/03/19 00:09:03;;;;;;;2.15;0.88;;;10.20;99.90;;;;;;5002848;28;20046;-72
2023/03/19 00:11:29;;;;;;;2.72;1.20;;;10.20;99.90;;;;;;5004388;28;20053;-73
2023/03/19 00:13:54;;;;;;;1.48;0.80;;;10.20;99.90;;;;;;5002923;28;20053;-72
2023/03/19 00:16:20;;;;;;;1.30;0.70;;;10.20;99.90;;;;;;5002846;28;20104;-72
2023/03/19 00:18:46;;;;;;;1.08;0.85;;;10.20;99.90;;;;;;4986398;28;20425;-72
2023/03/19 00:21:12;;;;;;;2.17;1.10;;;10.20;99.90;;;;;;5003817;28;21032;-72
2023/03/19 00:23:38;;;;;;;2.38;1.02;;;10.20;99.90;;;;;;5003983;28;20042;-73
2023/03/19 00:26:04;;;;;;;1.45;0.95;;;10.20;99.90;;;;;;4985987;28;20045;-72
2023/03/19 00:28:30;;;;;;;1.27;0.70;;;10.20;99.90;;;;;;5004271;28;20457;-73
2023/03/19 00:30:56;;;;;;;0.75;0.60;;;10.20;99.90;;;;;;5004494;28;20049;-72
2023/03/19 00:33:22;;;;;;;0.88;0.80;;;10.20;99.90;;;;;;4984986;28;20130;-71
2023/03/19 00:35:47;;;;;;;0.85;0.70;;;10.20;99.90;;;;;;4986482;28;20054;-72
2023/03/19 00:38:13;;;;;;;3.47;1.10;;;10.20;99.90;;;;;;5007086;28;20034;-72
2023/03/19 00:40:39;;;;;;;2.03;0.60;;;10.20;99.90;;;;;;5007707;28;20481;-72
2023/03/19 00:43:05;;;;;;;0.50;0.50;;;10.20;99.90;;;;;;4989943;28;20053;-72
2023/03/19 00:45:30;;;;;;;0.73;0.60;;;10.20;99.90;;;;;;5007324;28;20437;-72
2023/03/19 00:47:56;;;;;;;0.93;0.50;;;10.20;99.90;;;;;;4989335;28;20050;-72
2023/03/19 00:50:24;;;;;;;0.75;0.60;;;10.20;99.90;;;;;;4989635;28;20057;-71
2023/03/19 00:52:51;;;;;;;2.03;0.52;;;10.10;99.90;;;;;;5007247;28;20083;-71
2023/03/19 00:55:17;;;;;;;1.10;0.70;;;10.10;99.90;;;;;;5006305;28;20231;-72
2023/03/19 00:57:42;;;;;;;0.85;0.85;;;10.10;99.90;;;;;;5007246;28;20522;-71
2023/03/19 01:00:09;;;;;;;0.75;0.75;;;10.10;99.90;;;;;;4989320;28;20050;-73
2023/03/19 01:02:35;;;;;;;0.93;0.57;;;10.10;99.90;;;;;;5021750;28;20497;-71
2023/03/19 01:05:01;;;;;;;1.17;0.52;;;10.10;99.90;;;;;;4988920;28;20042;-71
2023/03/19 01:07:26;;;;;;;0.80;0.63;;;10.10;99.90;;;;;;5007322;28;20396;-72
2023/03/19 01:09:52;;;;;;;0.50;0.50;;;10.10;99.90;;;;;;5006839;28;20129;-71
2023/03/19 01:12:18;;;;;;;1.50;0.60;;;10.10;99.90;;;;;;5006422;28;20151;-72
2023/03/19 01:14:44;;;;;;;1.67;0.82;;;10.10;99.90;;;;;;5006561;28;20510;-71
2023/03/19 01:17:09;;;;;;;1.67;0.60;;;10.10;99.90;;;;;;5005701;28;20056;-73
2023/03/19 01:19:35;;;;;;;0.93;0.75;;;10.10;99.90;;;;;;5007363;28;20038;-72
2023/03/19 01:22:01;;;;;;;0.70;0.70;;;10.10;99.90;;;;;;5006666;28;20494;-72
2023/03/19 01:24:30;;;;;;;0.68;0.68;;;10.10;99.90;;;;;;4990114;28;20046;-72
2023/03/19 01:26:56;;;;;;;0.70;0.70;;;10.10;99.90;;;;;;4989434;28;20564;-71
2023/03/19 01:29:22;;;;;;;2.65;0.70;;;10.10;99.90;;;;;;5006258;28;20069;-71
2023/03/19 01:31:48;;;;;;;1.52;0.90;;;10.10;99.90;;;;;;5020891;28;20129;-73
2023/03/19 01:34:13;;;;;;;1.52;0.93;;;10.10;99.90;;;;;;5005857;28;20045;-72
2023/03/19 01:36:39;;;;;;;0.60;0.60;;;10.00;99.90;;;;;;5006454;28;20038;-72
2023/03/19 01:39:05;;;;;;;1.38;0.68;;;10.00;99.90;;;;;;5006571;28;20384;-72
2023/03/19 01:41:30;;;;;;;1.25;0.80;;;10.10;99.90;;;;;;5006438;28;20041;-72
2023/03/19 01:43:56;;;;;;;1.33;0.77;;;10.10;99.90;;;;;;5021968;28;20038;-72
2023/03/19 01:46:31;;;;;;;2.42;0.90;;;10.00;99.90;;;;;;5020340;28;20038;-71
2023/03/19 01:48:59;;;;;;;2.03;1.10;;;10.00;99.90;;;;;;5006496;28;20052;-72
2023/03/19 01:51:33;;;;;;;2.80;0.70;;;10.00;99.90;;;;;;5006748;28;20231;-71
2023/03/19 01:54:00;;;;;;;2.22;1.30;;;10.10;99.90;;;;;;4988996;28;20042;-71
2023/03/19 01:56:31;;;;;;;1.65;0.95;;;10.10;99.90;;;;;;5006584;28;20041;-71
2023/03/19 01:59:02;;;;;;;2.95;1.20;;;10.10;99.90;;;;;;5006274;28;20046;-71
2023/03/19 02:01:32;;;;;;;2.90;1.45;;;10.10;99.90;;;;;;5005627;28;20046;-71
2023/03/19 02:03:59;;;;;;;2.92;1.20;;;10.00;99.90;;;;;;5005948;28;20124;-72
2023/03/19 02:06:27;;;;;;;2.58;1.80;;;10.10;99.90;;;;;;5006852;28;20092;-72
2023/03/19 02:08:53;;;;;;;2.10;1.20;;;10.10;99.90;;;;;;5005931;28;20680;-72
2023/03/19 02:11:20;;;;;;;3.13;1.30;;;10.10;99.90;;;;;;5005180;28;20067;-72
2023/03/19 02:13:46;;;;;;;2.63;1.33;;;10.00;99.90;;;;;;5005956;28;20050;-71
2023/03/19 02:16:14;;;;;;;3.15;2.17;;;10.10;99.90;;;;;;5004203;28;20081;-71
2023/03/19 02:18:41;;;;;;;3.15;1.83;;;10.10;99.90;;;;;;5005237;28;20133;-72
2023/03/19 02:21:10;;;;;;;3.30;1.80;;;10.00;99.90;;;;;;4988008;28;20140;-72
2023/03/19 02:23:49;;;;;;;3.03;1.38;;;10.00;99.90;;;;;;5005674;28;20520;-71
2023/03/19 02:26:20;;;;;;;4.07;1.88;;;10.10;99.90;;;;;;4992470;28;20046;-72
2023/03/19 02:28:49;;;;;;;4.75;1.90;;;10.10;99.90;;;;;;4988234;28;20125;-73
2023/03/19 02:31:15;;;;;;;2.97;1.40;;;10.00;99.90;;;;;;4986855;28;20084;-72
2023/03/19 02:33:41;;;;;;;5.05;2.10;;;10.10;99.90;;;;;;5005575;28;20092;-71
2023/03/19 02:36:13;;;;;;;3.13;2.03;;;10.10;99.90;;;;;;5004802;28;20050;-72
2023/03/19 02:38:41;;;;;;;4.47;2.25;;;10.10;99.90;;;;;;5005506;28;20045;-72
2023/03/19 02:41:08;;;;;;;5.07;1.90;;;10.00;99.90;;;;;;5005204;28;20050;-71
2023/03/19 02:43:36;;;;;;;4.28;1.50;;;10.10;99.90;;;;;;5004876;28;20042;-71
2023/03/19 02:46:04;;;;;;;6.75;2.33;;;10.00;99.90;;;;;;5003832;28;20053;-72
2023/03/19 02:48:31;;;;;;;4.53;2.30;;;10.10;99.90;;;;;;4987255;28;20121;-72
2023/03/19 02:50:57;;;;;;;6.07;2.40;;;10.10;99.90;;;;;;5005411;28;20089;-72
2023/03/19 02:53:23;;;;;;;6.63;2.60;;;10.00;99.90;;;;;;5004687;28;20486;-73
2023/03/19 02:55:49;;;;;;;4.63;2.05;;;10.10;99.90;;;;;;5004862;28;20061;-71
2023/03/19 02:58:14;;;;;;;5.40;2.15;;;10.10;99.90;;;;;;5004528;28;20065;-71
2023/03/19 03:00:41;;;;;;;4.75;3.03;;;10.10;99.90;;;;;;5003878;28;20096;-73
2023/03/19 03:03:07;;;;;;;7.40;2.65;;;10.10;99.90;;;;;;5004234;28;20108;-71
2023/03/19 03:05:33;;;;;;;6.53;2.72;;;10.10;99.90;;;;;;5005246;28;20667;-72
2023/03/19 03:07:59;;;;;;;4.30;2.10;;;10.10;99.90;;;;;;5005294;28;20045;-71
2023/03/19 03:10:24;;;;;;;5.50;2.30;;;10.00;99.90;;;;;;5004813;28;20033;-71
2023/03/19 03:12:50;;;;;;;5.05;2.08;;;10.10;99.90;;;;;;5019787;28;20137;-72
2023/03/19 03:15:16;;;;;;;6.65;2.30;;;10.10;99.90;;;;;;5003495;28;20474;-72
2023/03/19 03:17:44;;;;;;;7.25;3.33;;;10.00;99.90;;;;;;4986113;28;20136;-72
2023/03/19 03:20:11;;;;;;;6.38;2.47;;;10.10;99.90;;;;;;5004445;28;20487;-72
2023/03/19 03:22:38;;;;;;;6.25;2.75;;;10.00;99.90;;;;;;5004890;28;20049;-72
2023/03/19 03:25:04;;;;;;;5.03;2.45;;;10.00;99.90;;;;;;5004319;28;20603;-71
2023/03/19 03:27:30;;;;;;;5.30;2.70;;;10.10;99.90;;;;;;5004705;28;20046;-74
2023/03/19 03:29:56;;;;;;;6.13;3.10;;;10.00;99.90;;;;;;5004753;28;20176;-72
2023/03/19 03:32:22;;;;;;;5.57;2.72;;;10.10;99.90;;;;;;5003130;28;20117;-72
2023/03/19 03:34:47;;;;;;;9.93;3.45;;;10.00;99.90;;;;;;5004761;28;20045;-72
2023/03/19 03:37:13;;;;;;;10.65;3.10;;;10.00;99.90;;;;;;5003774;28;20053;-72
2023/03/19 03:39:39;;;;;;;8.90;2.95;;;10.00;99.90;;;;;;5004118;28;20038;-72
2023/03/19 03:42:05;;;;;;;5.13;2.85;;;9.90;99.90;;;;;;4986318;28;20077;-72
2023/03/19 03:44:31;;;;;;;6.22;2.97;;;9.90;99.90;;;;;;4987017;28;20112;-72
2023/03/19 03:46:56;;;;;;;7.18;2.75;;;9.90;99.90;;;;;;4970608;28;20494;-72
2023/03/19 03:49:22;;;;;;;5.07;2.92;;;9.80;99.90;;;;;;5003724;28;20112;-72
2023/03/19 03:51:48;;;;;;;5.07;3.45;;;9.80;99.90;;;;;;5004511;28;20038;-72
2023/03/19 03:54:14;;;;;;;6.15;3.13;;;9.80;99.90;;;;;;5004144;28;20042;-71
2023/03/19 03:56:39;;;;;;;5.07;2.85;;;9.70;99.90;;;;;;5004246;28;20054;-73
2023/03/19 03:59:06;;;;;;;4.63;2.92;;;9.80;99.90;;;;;;5003738;28;20074;-72
2023/03/19 04:01:32;;;;;;;6.28;2.80;;;9.70;99.90;;;;;;4985379;28;20056;-72
2023/03/19 04:03:58;;;;;;;9.15;3.67;;;9.70;99.90;;;;;;5005028;28;20126;-73
2023/03/19 04:06:26;;;;;;;3.58;2.22;;;9.70;99.90;;;;;;5003942;28;20042;-73
2023/03/19 04:08:51;;;;;;;4.55;2.38;;;9.60;99.90;;;;;;5003746;28;20046;-72
2023/03/19 04:11:17;;;;;;;5.70;3.38;;;9.60;99.90;;;;;;5006141;28;20061;-72
2023/03/19 04:13:43;;;;;;;8.02;3.20;;;9.60;99.90;;;;;;5007908;28;20498;-73
2023/03/19 04:16:09;;;;;;;5.53;2.83;;;9.50;99.90;;;;;;5007000;28;20042;-73
2023/03/19 04:18:36;;;;;;;6.63;2.75;;;9.50;99.90;;;;;;5007759;28;20145;-73
2023/03/19 04:21:03;;;;;;;5.63;3.10;;;9.50;99.90;;;;;;5007739;28;20040;-72
2023/03/19 04:23:29;;;;;;;4.20;2.58;;;9.50;99.90;;;;;;5008683;28;20041;-73
2023/03/19 04:25:59;;;;;;;5.82;2.85;;;9.40;99.90;;;;;;5008171;28;20053;-71
2023/03/19 04:28:25;;;;;;;5.60;2.67;;;9.40;99.90;;;;;;5008074;28;20057;-71
2023/03/19 04:30:50;;;;;;;6.40;3.22;;;9.30;99.90;;;;;;4989595;28;20129;-73
2023/03/19 04:33:16;;;;;;;5.95;2.15;;;9.20;99.90;;;;;;5007299;28;20042;-72
2023/03/19 04:35:42;;;;;;;4.55;2.30;;;9.20;99.90;;;;;;5007458;28;20050;-73
2023/03/19 04:38:07;;;;;;;5.10;2.50;;;9.10;99.90;;;;;;5007380;28;20029;-72
2023/03/19 04:40:33;;;;;;;4.22;2.30;;;9.10;99.90;;;;;;5007674;28;20526;-71
2023/03/19 04:42:59;;;;;;;6.25;2.92;;;9.00;99.90;;;;;;4990345;28;20029;-75
2023/03/19 04:45:25;;;;;;;4.57;2.60;;;9.00;99.90;;;;;;5006979;28;20512;-72
2023/03/19 04:47:51;;;;;;;4.90;2.53;;;8.90;99.90;;;;;;5007129;28;20157;-72
2023/03/19 04:50:17;;;;;;;5.72;1.95;;;8.90;99.90;;;;;;5007216;28;20445;-73
2023/03/19 04:52:43;;;;;;;2.97;2.50;;;8.90;99.90;;;;;;5007056;28;20050;-72
2023/03/19 04:55:09;;;;;;;5.50;2.60;;;8.80;99.90;;;;;;5006973;28;20064;-73
2023/03/19 04:57:35;;;;;;;6.32;3.25;;;8.80;99.90;;;;;;5007258;28;20117;-72
2023/03/19 05:00:01;;;;;;;3.72;2.13;;;8.70;99.90;;;;;;4988889;28;20042;-73
2023/03/19 05:02:27;;;;;;;3.60;2.00;;;8.60;99.90;;;;;;5007076;28;20096;-72
2023/03/19 05:04:53;;;;;;;5.88;2.88;;;8.60;99.90;;;;;;5007077;28;20125;-71
2023/03/19 05:07:19;;;;;;;5.65;2.40;;;8.50;99.90;;;;;;5021733;28;20479;-72
2023/03/19 05:09:45;;;;;;;4.07;2.45;;;8.50;99.90;;;;;;5005656;28;20517;-72
2023/03/19 05:12:11;;;;;;;4.18;2.28;;;8.50;99.90;;;;;;5006091;28;20048;-72
2023/03/19 05:14:37;;;;;;;4.60;2.25;;;8.50;99.90;;;;;;5006962;28;20120;-71
2023/03/19 05:17:03;;;;;;;6.20;2.80;;;8.40;99.90;;;;;;5005643;28;20041;-72
2023/03/19 05:19:29;;;;;;;4.22;2.00;;;8.40;99.90;;;;;;5007070;28;20038;-73
2023/03/19 05:21:56;;;;;;;2.70;1.70;;;8.40;99.90;;;;;;5006108;28;20453;-71
2023/03/19 05:24:22;;;;;;;4.45;3.22;;;8.30;99.90;;;;;;4989147;28;20053;-72
2023/03/19 05:26:48;;;;;;;4.53;2.20;;;8.20;99.90;;;;;;5006799;28;20077;-72
2023/03/19 05:29:14;;;;;;;5.57;2.80;;;8.20;99.90;;;;;;5006486;28;20093;-72
2023/03/19 05:31:40;;;;;;;5.10;2.42;;;8.20;99.90;;;;;;5005726;28;20041;-72
2023/03/19 05:34:06;;;;;;;5.13;2.13;;;8.20;99.90;;;;;;5021420;28;20133;-72
2023/03/19 05:36:32;;;;;;;3.55;2.25;;;8.20;99.90;;;;;;5006182;28;20125;-72
2023/03/19 05:38:58;;;;;;;5.00;2.83;;;8.10;99.90;;;;;;5007245;28;20129;-72
2023/03/19 05:41:24;;;;;;;6.10;2.47;;;8.00;99.90;;;;;;5006311;28;20479;-73
2023/03/19 05:43:50;;;;;;;5.72;2.88;;;8.00;99.90;;;;;;5004856;28;20050;-72
2023/03/19 05:46:15;;;;;;;4.35;2.55;;;8.00;99.90;;;;;;5005398;28;20111;-72
2023/03/19 05:48:41;;;;;;;7.38;2.53;;;8.00;99.90;;;;;;5005725;28;20050;-72
2023/03/19 05:51:07;;;;;;;4.90;2.22;;;8.00;99.90;;;;;;5005938;28;20045;-72
2023/03/19 05:53:33;;;;;;;4.43;3.10;;;7.90;99.90;;;;;;5006347;28;20042;-72
2023/03/19 05:55:59;;;;;;;7.40;3.95;;;7.90;99.90;;;;;;5021527;28;20418;-73
2023/03/19 05:58:24;;;;;;;4.78;2.55;;;7.90;99.90;;;;;;5006425;28;20124;-72
2023/03/19 06:00:50;;;;;;;4.57;2.85;;;7.90;99.90;;;;;;4987468;28;20073;-71
2023/03/19 06:03:16;;;;;;;6.47;2.28;;;7.90;99.90;;;;;;5005704;28;20052;-72
2023/03/19 06:05:42;;;;;;;6.20;2.55;;;7.90;99.90;;;;;;5005637;28;20450;-72
2023/03/19 06:08:07;;;;;;;5.63;2.63;;;7.90;99.90;;;;;;4987828;28;20041;-73
2023/03/19 06:10:34;;;;;;;6.30;3.33;;;7.90;99.90;;;;;;5006163;28;20448;-72
2023/03/19 06:13:00;;;;;;;6.93;3.20;;;8.00;99.90;;;;;;5005183;28;20060;-73
2023/03/19 06:15:26;;;;;;;10.00;3.33;;;8.00;99.90;;;;;;5005402;28;20402;-72
2023/03/19 06:17:51;;;;;;;7.07;3.38;;;8.00;99.90;;;;;;5005867;28;20054;-72
2023/03/19 06:20:17;;;;;;;6.43;3.20;;;8.00;99.90;;;;;;5005400;28;20533;-72
2023/03/19 06:22:43;;;;;;;8.80;3.88;;;8.00;99.90;;;;;;5005134;28;20050;-72
2023/03/19 06:25:09;;;;;;;7.72;3.20;;;8.00;99.90;;;;;;4987866;28;20104;-73
2023/03/19 06:27:35;;;;;;;6.10;2.83;;;8.00;99.90;;;;;;4988387;28;20045;-72
2023/03/19 06:30:00;;;;;;;6.82;3.33;;;8.00;99.90;;;;;;5004397;28;20038;-72
2023/03/19 06:32:26;;;;;;;8.50;3.33;;;8.00;99.90;;;;;;5005096;28;20077;-73
2023/03/19 06:34:52;;;;;;;6.22;2.50;;;8.10;99.90;;;;;;4986958;28;20037;-72
2023/03/19 06:37:17;;;;;;;7.65;3.35;;;8.10;99.90;;;;;;5004815;28;20046;-72
2023/03/19 06:39:43;;;;;;;9.00;3.53;;;8.10;99.90;;;;;;5020909;28;20042;-72
2023/03/19 06:42:09;;;;;;;8.90;3.55;;;8.10;99.90;;;;;;5005250;28;20045;-71
2023/03/19 06:44:34;;;;;;;9.35;4.18;;;8.10;99.90;;;;;;5005086;28;20111;-73
2023/03/19 06:47:00;;;;;;;10.45;4.10;;;8.10;99.90;;;;;;4986396;28;20096;-73
2023/03/19 06:49:26;;;;;;;6.35;4.05;;;8.20;99.90;;;;;;5003654;28;20046;-72
2023/03/19 06:51:51;;;;;;;8.35;3.55;;;8.20;99.90;;;;;;5005339;28;20049;-71
2023/03/19 06:54:17;;;;;;;8.43;3.88;;;8.20;99.90;;;;;;5004679;28;20045;-72
2023/03/19 06:56:43;;;;;;;7.88;4.05;;;8.30;99.90;;;;;;5005361;28;20490;-72
2023/03/19 06:59:11;;;;;;;8.38;3.75;;;8.30;99.90;;;;;;4986837;28;20034;-72
2023/03/19 07:01:38;;;;;;;12.00;3.45;;;8.30;99.90;;;;;;5011659;28;20525;-71
2023/03/19 07:04:05;;;;;;;7.35;3.78;;;8.40;99.90;;;;;;5020756;28;20037;-73
2023/03/19 07:06:30;;;;;;;7.47;3.67;;;8.40;99.90;;;;;;5009755;28;20046;-74
2023/03/19 07:08:56;;;;;;;8.82;3.60;;;8.50;99.90;;;;;;5008462;28;20092;-73
2023/03/19 07:11:21;;;;;;;8.25;3.80;;;8.50;99.90;;;;;;5015436;28;20581;-72
2023/03/19 07:13:47;;;;;;;7.20;3.67;;;8.50;99.90;;;;;;5008155;28;20380;-73
2023/03/19 07:16:12;;;;;;;9.25;3.58;;;8.50;99.90;;;;;;4996992;28;20116;-73
2023/03/19 07:18:38;;;;;;;9.07;4.20;;;8.60;99.90;;;;;;5012564;28;20530;-73
2023/03/19 07:21:04;;;;;;;6.88;3.45;;;8.60;99.90;;;;;;4997983;28;20049;-73
2023/03/19 07:23:29;;;;;;;7.78;3.40;;;8.70;99.90;;;;;;5005278;28;20034;-75
2023/03/19 07:25:55;;;;;;;9.48;4.25;;;8.70;99.90;;;;;;4994281;28;20041;-73
2023/03/19 07:28:21;;;;;;;9.68;4.10;;;8.70;99.90;;;;;;4995155;28;20517;-74
2023/03/19 07:30:47;;;;;;;6.65;3.55;;;8.70;99.90;;;;;;5003843;28;20050;-72
2023/03/19 07:33:13;;;;;;;11.60;4.18;;;8.70;99.90;;;;;;5020194;28;20053;-73
2023/03/19 07:35:38;;;;;;;12.70;5.10;;;8.70;99.90;;;;;;4987002;28;20514;-73
2023/03/19 07:38:04;;;;;;;15.38;4.53;;;8.70;99.90;;;;;;4995648;28;20087;-73
2023/03/19 07:40:30;;;;;;;12.75;3.60;;;8.70;99.90;;;;;;4988172;28;20049;-75
2023/03/19 07:42:55;;;;;;;10.57;4.57;;;8.70;99.90;;;;;;5009626;28;20042;-73
2023/03/19 07:45:21;;;;;;;12.70;3.80;;;8.70;99.90;;;;;;4984926;28;20054;-73
2023/03/19 07:47:50;;;;;;;10.95;3.10;;;8.70;99.90;;;;;;5003575;28;20042;-73
2023/03/19 07:50:15;;;;;;;12.35;4.55;;;8.70;99.90;;;;;;5002267;28;20037;-73
2023/03/19 07:52:43;;;;;;;11.30;4.28;;;8.70;99.90;;;;;;5004551;28;20064;-73
2023/03/19 07:55:09;;;;;;;13.55;4.07;;;8.60;99.90;;;;;;5006424;28;20033;-73
2023/03/19 07:57:35;;;;;;;11.27;4.28;;;8.60;99.90;;;;;;5003391;28;20489;-73
2023/03/19 08:00:00;;;;;;;12.77;5.85;;;8.70;99.90;;;;;;5003102;28;20114;-74
2023/03/19 08:02:26;;;;;;;15.52;6.43;;;8.60;99.90;;;;;;5006577;28;20042;-73
2023/03/19 08:04:52;;;;;;;14.05;5.25;;;8.60;99.90;;;;;;4989713;28;20053;-73
2023/03/19 08:07:17;;;;;;;11.93;4.88;;;8.60;99.90;;;;;;5006312;28;20038;-72
2023/03/19 08:09:43;;;;;;;10.68;3.85;;;8.60;99.90;;;;;;4989942;28;20064;-73
2023/03/19 08:12:09;;;;;;;16.20;5.25;;;8.60;99.90;;;;;;5003255;28;20147;-73
2023/03/19 08:14:34;;;;;;;10.30;3.47;;;8.70;99.90;;;;;;5003439;28;20050;-73
2023/03/19 08:17:00;;;;;;;14.25;4.75;;;8.70;99.90;;;;;;5005646;28;20045;-74
2023/03/19 08:19:26;;;;;;;11.25;3.38;;;8.60;99.90;;;;;;5004192;28;20050;-73
2023/03/19 08:21:51;;;;;;;11.38;3.92;;;8.60;99.90;;;;;;5004360;28;20502;-73
2023/03/19 08:24:18;;;;;;;13.20;3.78;;;8.60;99.90;;;;;;5001725;28;20601;-73
2023/03/19 08:26:44;;;;;;;6.60;3.38;;;8.60;99.90;;;;;;5009801;28;20056;-74
2023/03/19 08:29:09;;;;;;;6.68;3.40;;;8.70;99.90;;;;;;5007277;28;20116;-75
2023/03/19 08:31:35;;;;;;;6.55;2.58;;;8.60;99.90;;;;;;5002741;28;20042;-73
2023/03/19 08:34:03;;;;;;;5.15;2.30;;;8.60;99.90;;;;;;4985912;28;20048;-72
2023/03/19 08:36:29;;;;;;;6.60;3.25;;;8.60;99.90;;;;;;5004449;28;20069;-72
2023/03/19 08:38:55;;;;;;;6.85;3.40;;;8.60;99.90;;;;;;5019685;28;20046;-74
2023/03/19 08:41:22;;;;;;;7.93;3.22;;;8.60;99.90;;;;;;5022483;28;20055;-74
2023/03/19 08:43:48;;;;;;;6.43;2.50;;;8.60;99.90;;;;;;5023485;28;20045;-73
2023/03/19 08:46:13;;;;;;;6.95;2.20;;;8.70;99.90;;;;;;5002373;28;20517;-73
2023/03/19 08:48:39;;;;;;;11.02;2.97;;;8.70;99.90;;;;;;4985777;28;20074;-74
2023/03/19 08:51:05;;;;;;;10.73;4.18;;;8.70;99.90;;;;;;4988672;28;20125;-74
2023/03/19 08:53:32;;;;;;;8.15;3.17;;;8.70;99.90;;;;;;5002503;28;20470;-72
2023/03/19 08:55:59;;;;;;;10.38;3.60;;;8.70;99.90;;;;;;4985949;28;20128;-73
2023/03/19 08:58:27;;;;;;;9.65;2.78;;;8.80;99.90;;;;;;5005074;28;20100;-75
2023/03/19 09:00:59;;;;;;;4.47;2.42;;;8.70;99.90;;;;;;5021648;28;20434;-74
2023/03/19 09:03:25;;;;;;;;;;;8.80;99.90;;;;;;4990476;28;20042;-74
2023/03/19 09:05:50;;;;;;;10.82;3.17;;;8.80;99.90;;;;;;5009232;28;20816;-74
2023/03/19 09:08:16;;;;;;;7.20;2.45;;;8.80;99.90;;;;;;5007076;28;20586;-74
2023/03/19 09:10:41;;;;;;;9.40;2.97;;;8.80;99.90;;;;;;4986228;28;20059;-74
2023/03/19 09:13:07;;;;;;;10.52;3.90;;;8.80;99.90;;;;;;5004236;28;20096;-73
2023/03/19 09:15:32;;;;;;;10.10;2.97;;;8.90;99.90;;;;;;5006555;28;20050;-73
2023/03/19 09:17:58;;;;;;;6.72;2.17;;;8.90;99.90;;;;;;5007062;28;20485;-73
2023/03/19 09:20:24;;;;;;;7.35;2.75;;;8.90;99.90;;;;;;5006976;28;20038;-73
2023/03/19 09:22:49;;;;;;;4.50;2.10;;;8.90;99.90;;;;;;5006838;28;20107;-75
2023/03/19 09:25:15;;;;;;;6.13;2.33;;;8.90;99.90;;;;;;4991525;28;20048;-75
2023/03/19 09:27:40;;;;;;;10.30;2.80;;;8.90;99.90;;;;;;5020220;28;20041;-74
2023/03/19 09:30:09;;;;;;;7.78;3.15;;;8.90;99.90;;;;;;5014165;28;20127;-74
2023/03/19 09:32:35;;;;;;;4.03;2.33;;;8.90;99.90;;;;;;5022035;28;20033;-74
2023/03/19 09:35:01;;;;;;;5.38;2.67;;;9.00;99.90;;;;;;5006942;28;20042;-74
2023/03/19 09:37:27;;;;;;;6.13;2.20;;;9.00;99.90;;;;;;5005495;28;20580;-75
2023/03/19 09:39:52;;;;;;;4.90;1.75;;;9.00;99.90;;;;;;5007064;28;20048;-74
2023/03/19 09:42:48;;;;;;;5.35;2.55;;;9.10;99.90;;;;;;4988926;28;20053;-74
2023/03/19 09:45:17;;;;;;;8.02;3.47;;;9.10;99.90;;;;;;5005427;28;20034;-74
2023/03/19 09:47:44;;;;;;;6.57;2.33;;;9.10;99.90;;;;;;5006619;28;20072;-74
2023/03/19 09:50:09;;;;;;;5.40;2.35;;;9.10;99.90;;;;;;5006113;28;20068;-74
2023/03/19 09:52:56;;;;;;;7.85;2.72;;;9.20;99.90;;;;;;5006328;28;20401;-74
2023/03/19 09:55:31;;;;;;;8.77;3.08;;;9.20;99.90;;;;;;4988696;28;20128;-74
2023/03/19 09:57:57;;;;;;;8.68;3.00;;;9.20;99.90;;;;;;5009854;28;20046;-74
2023/03/19 10:00:34;;;;;;;7.32;4.40;;;9.20;99.90;;;;;;5005497;28;20049;-74
2023/03/19 10:03:37;;;;;;;10.18;4.07;;;9.20;99.90;;;;;;5006081;28;20101;-75
2023/03/19 10:06:25;;;;;;;11.07;3.50;;;9.30;99.90;;;;;;4986492;28;20121;-76
2023/03/19 10:09:29;;;;;;;14.75;4.07;;;9.30;99.90;;;;;;5001413;28;20054;-75
2023/03/19 10:12:13;;;;;;;9.40;3.28;;;9.30;99.90;;;;;;4975068;28;20137;-75
2023/03/19 10:15:08;;;;;;;6.45;3.20;;;9.30;99.90;;;;;;5015805;28;20049;-75
2023/03/19 10:17:46;;;;;;;6.32;3.53;;;9.40;99.90;;;;;;5005150;28;20050;-76
2023/03/19 10:20:33;;;;;;;6.45;3.35;;;9.40;99.90;;;;;;4997860;28;20084;-75
2023/03/19 10:23:12;;;;;;;5.90;3.03;;;9.50;99.90;;;;;;4993065;28;20530;-75
2023/03/19 10:25:40;;;;;;;9.93;4.22;;;9.40;99.90;;;;;;5011798;28;20037;-75
2023/03/19 10:28:15;;;;;;;9.25;3.63;;;9.50;99.90;;;;;;5006733;28;20053;-75
2023/03/19 10:30:43;;;;;;;7.57;3.05;;;9.50;99.90;;;;;;4985287;28;20130;-75
2023/03/19 10:33:22;;;;;;;7.38;2.75;;;9.40;99.90;;;;;;4989399;28;20054;-75
2023/03/19 10:35:55;;;;;;;7.82;4.10;;;9.40;99.90;;;;;;5025147;28;20115;-75
2023/03/19 10:38:23;;;;;;;6.20;3.45;;;9.50;99.90;;;;;;5025152;28;20395;-75
2023/03/19 10:41:19;;;;;;;5.32;3.38;;;9.50;99.90;;;;;;5014711;28;20533;-75
2023/03/19 10:44:00;;;;;;;8.07;3.03;;;9.50;99.90;;;;;;4988860;28;20046;-75
2023/03/19 10:46:26;;;;;;;8.07;3.33;;;9.50;99.90;;;;;;4988202;28;20143;-75
2023/03/19 10:48:51;;;;;;;5.45;2.90;;;9.50;99.90;;;;;;4987394;28;20506;-75
2023/03/19 10:51:25;;;;;;;6.93;3.20;;;9.50;99.90;;;;;;5017402;28;20056;-75
2023/03/19 10:53:56;;;;;;;7.70;2.58;;;9.50;99.90;;;;;;5005713;28;20074;-74
2023/03/19 10:56:31;;;;;;;8.43;3.20;;;9.60;99.90;;;;;;5004196;28;20071;-75
2023/03/19 10:59:05;;;;;;;11.23;4.13;;;9.60;99.90;;;;;;4971026;28;20046;-75
2023/03/19 11:01:54;;;;;;;8.00;4.22;;;9.50;99.90;;;;;;4999037;28;20121;-74
2023/03/19 11:04:21;;;;;;;8.07;3.03;;;9.50;99.90;;;;;;4997630;28;20042;-74
2023/03/19 11:06:49;;;;;;;6.30;2.90;;;9.50;99.90;;;;;;5019128;28;20038;-75
2023/03/19 11:09:27;;;;;;;7.75;2.75;;;9.50;99.90;;;;;;4977926;28;20539;-75
2023/03/19 11:11:57;;;;;;;6.03;2.90;;;9.50;99.90;;;;;;5005296;28;20165;-74
2023/03/19 11:14:42;;;;;;;5.47;2.83;;;9.60;99.90;;;;;;5003840;28;20128;-75
2023/03/19 11:17:17;;;;;;;7.57;3.03;;;9.60;99.90;;;;;;5005421;28;20041;-75
2023/03/19 11:19:51;;;;;;;7.88;3.50;;;9.60;99.90;;;;;;4983839;28;20087;-74
2023/03/19 11:22:20;;;;;;;6.85;3.42;;;9.60;99.90;;;;;;5018974;28;20053;-74
2023/03/19 11:25:34;;;;;;;6.80;2.30;;;9.60;99.90;;;;;;5006056;28;20037;-75
2023/03/19 11:28:23;;;;;;;7.93;2.88;;;9.60;99.90;;;;;;4939801;28;20083;-75
2023/03/19 11:30:57;;;;;;;7.85;2.40;;;9.70;99.90;;;;;;5002560;28;20038;-75
2023/03/19 11:33:31;;;;;;;9.18;2.95;;;9.70;99.90;;;;;;5016299;28;20563;-76
2023/03/19 11:36:26;;;;;;;7.85;3.30;;;9.70;99.90;;;;;;4989256;28;20034;-74
2023/03/19 11:38:57;;;;;;;7.35;3.20;;;9.70;99.90;;;;;;4984227;28;20125;-73
2023/03/19 11:41:43;;;;;;;5.80;2.78;;;9.70;99.90;;;;;;4988831;28;20085;-75
2023/03/19 11:44:31;;;;;;;11.88;3.65;;;9.80;99.90;;;;;;5019035;28;20046;-76
2023/03/19 11:47:39;;;;;;;10.07;3.05;;;9.80;99.90;;;;;;5019252;28;20128;-76
2023/03/19 11:50:30;;;;;;;10.07;3.03;;;9.80;99.90;;;;;;4973726;28;20058;-76
2023/03/19 11:53:11;;;;;;;8.13;3.15;;;9.80;99.90;;;;;;5004556;28;20046;-75
2023/03/19 11:55:53;;;;;;;12.80;4.13;;;9.80;99.90;;;;;;5015715;28;20046;-75
2023/03/19 11:59:04;;;;;;;7.17;2.70;;;9.80;99.90;;;;;;5000946;28;20053;-76
2023/03/19 12:02:00;;;;;;;13.13;4.93;;;9.80;99.90;;;;;;4982607;28;20297;-76
2023/03/19 12:04:32;;;;;;;8.13;3.58;;;9.90;99.90;;;;;;4976517;28;20510;-75
2023/03/19 12:07:11;;;;;;;9.73;3.60;;;9.90;99.90;;;;;;4970682;28;20387;-75
2023/03/19 12:09:59;;;;;;;11.02;3.90;;;10.00;99.90;;;;;;5003631;28;20409;-75
2023/03/19 12:12:59;;;;;;;10.40;3.47;;;10.00;99.90;;;;;;4984584;28;20062;-75
2023/03/19 12:15:52;;;;;;;11.38;4.88;;;10.00;99.90;;;;;;4996100;28;20498;-76
2023/03/19 12:18:26;;;;;;;;;;;10.00;99.90;;;;;;5015908;28;20528;-75
2023/03/19 12:20:58;;;;;;;12.10;5.30;;;10.00;99.90;;;;;;4974363;28;19920;-75
2023/03/19 12:23:36;;;;;;;9.27;5.10;;;10.00;99.90;;;;;;4988398;28;20046;-76
2023/03/19 12:26:20;;;;;;;8.70;4.47;;;10.00;99.90;;;;;;4964117;28;20057;-76
2023/03/19 12:28:51;;;;;;;8.95;4.55;;;10.00;99.90;;;;;;4984599;28;20046;-74
2023/03/19 12:31:33;;;;;;;11.30;5.43;;;10.00;99.90;;;;;;4986051;28;20046;-74
2023/03/19 12:34:16;;;;;;;15.05;6.18;;;10.00;99.90;;;;;;4990296;28;20053;-76
2023/03/19 12:36:54;;;;;;;17.95;5.63;;;10.00;99.90;;;;;;5015221;28;20057;-74
2023/03/19 12:39:27;;;;;;;16.10;6.07;;;10.00;99.90;;;;;;5000723;28;20057;-74
2023/03/19 12:41:55;;;;;;;12.65;5.60;;;10.00;99.90;;;;;;5007501;28;20057;-74
2023/03/19 12:44:24;;;;;;;10.30;5.35;;;10.00;99.90;;;;;;5024745;28;20082;-73
2023/03/19 12:46:58;;;;;;;14.60;6.15;;;10.00;99.90;;;;;;5016939;28;20434;-73
2023/03/19 12:49:27;;;;;;;10.77;5.20;;;10.10;99.90;;;;;;4975717;28;20422;-74
2023/03/19 12:52:04;;;;;;;12.00;5.18;;;10.10;99.90;;;;;;5006754;28;20505;-72
2023/03/19 12:54:37;;;;;;;11.20;5.13;;;10.10;99.90;;;;;;5006713;28;20069;-75
2023/03/19 12:57:21;;;;;;;15.98;5.50;;;10.20;99.90;;;;;;5010554;28;20108;-73
2023/03/19 12:59:57;;;;;;;15.95;7.40;;;10.20;99.90;;;;;;5001972;28;20038;-73
2023/03/19 13:03:06;;;;;;;12.02;5.47;;;10.20;99.90;;;;;;4995697;28;20041;-73
2023/03/19 13:05:42;;;;;;;10.35;4.93;;;10.30;99.90;;;;;;5005877;28;20049;-73